createdAt,value
2022-08-17T00:00:42.789Z,6.03
2022-08-17T00:03:35.274Z,6.93
2022-08-17T00:06:08.734Z,6.47
2022-08-17T00:08:47.280Z,5.60
2022-08-17T00:11:23.805Z,8.45
2022-08-17T00:14:02.404Z,5.32
2022-08-17T00:16:55.555Z,6.28
2022-08-17T00:19:32.236Z,5.80
2022-08-17T00:22:34.993Z,5.95
2022-08-17T00:24:59.225Z,4.95
2022-08-17T00:27:32.241Z,5.18
2022-08-17T00:29:59.123Z,4.85
2022-08-17T00:33:23.148Z,6.43
2022-08-17T00:35:21.079Z,5.75
2022-08-17T00:37:54.253Z,4.63
2022-08-17T00:40:21.465Z,5.00
2022-08-17T00:42:58.256Z,5.97
2022-08-17T00:45:31.284Z,4.40
2022-08-17T00:47:58.147Z,4.57
2022-08-17T00:50:31.275Z,4.30
2022-08-17T00:52:58.186Z,5.20
2022-08-17T00:55:25.103Z,4.55
2022-08-17T00:58:02.265Z,4.50
2022-08-17T01:00:41.355Z,4.82
2022-08-17T01:03:21.274Z,6.70
2022-08-17T01:05:56.257Z,4.43
2022-08-17T01:08:26.198Z,4.45
2022-08-17T01:11:02.362Z,6.80
2022-08-17T01:13:41.466Z,4.10
2022-08-17T01:16:26.141Z,6.25
2022-08-17T01:19:04.272Z,4.40
2022-08-17T01:22:03.333Z,5.07
2022-08-17T01:24:36.295Z,4.05
2022-08-17T01:27:03.411Z,6.75
2022-08-17T01:29:45.291Z,6.50
2022-08-17T01:32:12.438Z,4.18
2022-08-17T01:34:50.226Z,4.50
2022-08-17T01:37:18.109Z,4.95
2022-08-17T01:39:59.390Z,5.35
2022-08-17T01:43:08.307Z,4.78
2022-08-17T01:45:49.299Z,5.53
2022-08-17T01:48:35.517Z,4.75
2022-08-17T01:51:09.287Z,5.32
2022-08-17T01:53:46.333Z,6.28
2022-08-17T01:56:16.067Z,5.45
2022-08-17T01:58:43.096Z,8.27
2022-08-17T02:01:16.352Z,6.88
2022-08-17T02:03:53.486Z,5.13
2022-08-17T02:06:52.532Z,4.82
2022-08-17T02:09:25.653Z,5.75
2022-08-17T02:12:37.204Z,5.65
2022-08-17T02:14:48.167Z,6.18
2022-08-17T02:17:21.330Z,7.63
2022-08-17T02:19:48.206Z,7.90
2022-08-17T02:22:21.327Z,7.28
2022-08-17T02:24:59.536Z,7.82
2022-08-17T02:27:35.332Z,11.10
2022-08-17T02:30:05.189Z,9.60
2022-08-17T02:32:59.344Z,10.65
2022-08-17T02:35:31.220Z,7.05
2022-08-17T02:38:04.324Z,7.32
2022-08-17T02:40:35.703Z,6.68
2022-08-17T02:43:10.335Z,6.75
2022-08-17T02:45:37.281Z,7.50
2022-08-17T02:48:11.349Z,8.40
2022-08-17T02:50:38.217Z,8.65
2022-08-17T02:53:11.371Z,8.55
2022-08-17T02:55:39.975Z,7.82
2022-08-17T02:58:14.363Z,10.57
2022-08-17T03:00:43.609Z,7.32
2022-08-17T03:03:17.344Z,7.78
2022-08-17T03:05:45.062Z,8.73
2022-08-17T03:08:18.376Z,8.43
2022-08-17T03:10:45.524Z,8.82
2022-08-17T03:13:20.349Z,8.38
2022-08-17T03:15:47.626Z,8.88
2022-08-17T03:18:26.524Z,7.68
2022-08-17T03:21:05.389Z,9.35
2022-08-17T03:23:39.360Z,7.80
2022-08-17T03:26:15.664Z,11.85
2022-08-17T03:28:43.238Z,9.50
2022-08-17T03:31:16.396Z,8.52
2022-08-17T03:33:49.396Z,10.50
2022-08-17T03:36:16.281Z,8.50
2022-08-17T03:38:49.388Z,8.25
2022-08-17T03:41:17.969Z,7.40
2022-08-17T03:43:51.401Z,8.18
2022-08-17T03:46:27.985Z,9.82
2022-08-17T03:49:03.761Z,9.23
2022-08-17T03:51:37.396Z,8.43
2022-08-17T03:54:04.491Z,7.97
2022-08-17T03:56:41.432Z,7.70
2022-08-17T03:59:20.968Z,11.60
2022-08-17T04:01:59.433Z,9.80
2022-08-17T04:04:27.665Z,8.68
2022-08-17T04:07:01.422Z,9.15
2022-08-17T04:09:28.441Z,11.18
2022-08-17T04:11:55.397Z,12.95
2022-08-17T04:14:30.406Z,8.45
2022-08-17T04:16:57.264Z,9.20
2022-08-17T04:19:30.450Z,11.00
2022-08-17T04:22:04.415Z,9.57
2022-08-17T04:24:32.154Z,9.82
2022-08-17T04:27:05.425Z,8.65
2022-08-17T04:29:50.066Z,9.40
2022-08-17T04:33:10.466Z,8.77
2022-08-17T04:35:18.453Z,14.07
2022-08-17T04:37:45.627Z,9.88
2022-08-17T04:40:19.483Z,9.30
2022-08-17T04:42:46.425Z,6.82
2022-08-17T04:45:19.421Z,8.20
2022-08-17T04:47:46.440Z,11.57
2022-08-17T04:50:13.307Z,9.63
2022-08-17T04:52:53.447Z,7.85
2022-08-17T04:55:26.472Z,7.82
2022-08-17T04:57:53.393Z,8.93
2022-08-17T05:00:26.462Z,10.00
2022-08-17T05:02:54.511Z,8.30
2022-08-17T05:05:33.447Z,8.23
2022-08-17T05:08:01.723Z,12.27
2022-08-17T05:10:39.123Z,10.45
2022-08-17T05:13:24.510Z,10.63
2022-08-17T05:16:01.469Z,10.60
2022-08-17T05:18:29.060Z,9.27
2022-08-17T05:21:02.482Z,10.48
2022-08-17T05:23:42.544Z,13.07
2022-08-17T05:26:16.321Z,14.52
2022-08-17T05:29:03.488Z,8.02
2022-08-17T05:31:37.437Z,8.85
2022-08-17T05:34:04.315Z,7.40
2022-08-17T05:36:43.907Z,8.23
2022-08-17T05:39:19.475Z,7.18
2022-08-17T05:41:47.418Z,7.45
2022-08-17T05:44:21.470Z,6.70
2022-08-17T05:46:50.194Z,7.95
2022-08-17T05:49:28.484Z,7.72
2022-08-17T05:52:25.087Z,8.23
2022-08-17T05:55:27.489Z,9.80
2022-08-17T05:58:16.914Z,7.68
2022-08-17T06:01:02.556Z,8.38
2022-08-17T06:03:36.076Z,7.47
2022-08-17T06:06:33.493Z,9.60
2022-08-17T06:09:27.627Z,7.85
2022-08-17T06:12:23.140Z,6.32
2022-08-17T06:15:18.506Z,7.28
2022-08-17T06:17:45.428Z,7.65
2022-08-17T06:20:21.558Z,6.70
2022-08-17T06:22:58.482Z,8.18
2022-08-17T06:25:55.513Z,6.93
2022-08-17T06:28:42.513Z,9.50
2022-08-17T06:31:25.500Z,7.32
2022-08-17T06:33:58.529Z,9.07
2022-08-17T06:36:47.337Z,7.10
2022-08-17T06:39:44.541Z,8.48
2022-08-17T06:43:05.877Z,7.63
2022-08-17T06:45:45.565Z,7.78
2022-08-17T06:48:30.532Z,7.45
2022-08-17T06:51:14.483Z,9.20
2022-08-17T06:54:08.518Z,6.32
2022-08-17T06:56:53.884Z,6.55
2022-08-17T07:00:06.551Z,7.25
2022-08-17T07:03:04.701Z,9.05
2022-08-17T07:05:50.529Z,8.63
2022-08-17T07:09:43.528Z,6.78
2022-08-17T07:12:21.633Z,7.40
2022-08-17T07:15:08.550Z,6.10
2022-08-17T07:17:47.669Z,6.18
2022-08-17T07:20:26.575Z,6.10
2022-08-17T07:23:39.594Z,8.55
2022-08-17T07:26:07.404Z,6.57
2022-08-17T07:28:41.579Z,5.00
2022-08-17T07:31:14.614Z,6.25
2022-08-17T07:33:41.529Z,6.32
2022-08-17T07:36:32.565Z,7.22
2022-08-17T07:39:06.564Z,5.90
2022-08-17T07:41:57.585Z,6.70
2022-08-17T07:44:32.568Z,6.95
2022-08-17T07:46:59.471Z,8.02
2022-08-17T07:49:43.546Z,6.30
2022-08-17T07:52:50.672Z,6.13
2022-08-17T07:55:37.556Z,6.05
2022-08-17T07:58:04.419Z,6.53
2022-08-17T08:00:37.574Z,6.18
2022-08-17T08:03:26.049Z,7.03
2022-08-17T08:06:03.577Z,6.75
2022-08-17T08:08:40.770Z,6.30
2022-08-17T08:11:21.588Z,5.95
2022-08-17T08:13:48.535Z,8.27
2022-08-17T08:16:32.576Z,8.25
2022-08-17T08:19:07.591Z,9.52
2022-08-17T08:21:57.592Z,7.95
2022-08-17T08:25:15.447Z,7.35
2022-08-17T08:28:12.583Z,7.72
2022-08-17T08:30:45.454Z,10.38
2022-08-17T08:33:56.590Z,11.52
2022-08-17T08:37:11.926Z,8.70
2022-08-17T08:40:17.605Z,7.30
2022-08-17T08:43:11.684Z,5.95
2022-08-17T08:45:52.655Z,7.72
2022-08-17T08:48:53.750Z,7.13
2022-08-17T08:52:08.623Z,8.38
2022-08-17T08:54:41.074Z,8.98
2022-08-17T08:57:41.629Z,6.68
2022-08-17T09:00:25.182Z,8.55
2022-08-17T09:03:51.927Z,7.82
2022-08-17T09:06:41.633Z,6.78
2022-08-17T09:09:53.356Z,7.10
2022-08-17T09:12:45.635Z,9.60
2022-08-17T09:15:29.723Z,6.45
2022-08-17T09:19:01.044Z,8.35
2022-08-17T09:21:34.648Z,9.35
2022-08-17T09:24:39.623Z,6.57
2022-08-17T09:27:24.621Z,8.80
2022-08-17T09:29:58.638Z,10.23
2022-08-17T09:32:40.635Z,6.85
2022-08-17T09:35:39.468Z,6.88
2022-08-17T09:38:33.630Z,8.20
2022-08-17T09:41:50.646Z,7.63
2022-08-17T09:44:46.653Z,6.35
2022-08-17T09:47:46.693Z,6.65
2022-08-17T09:51:04.174Z,10.70
2022-08-17T09:53:24.652Z,8.02
2022-08-17T09:56:29.090Z,8.95
2022-08-17T09:59:26.654Z,8.40
2022-08-17T10:02:35.661Z,7.90
2022-08-17T10:05:44.727Z,7.47
2022-08-17T10:08:52.665Z,9.27
2022-08-17T10:12:03.685Z,6.55
2022-08-17T10:14:53.325Z,7.13
2022-08-17T10:17:47.742Z,6.30
2022-08-17T10:20:37.459Z,8.07
2022-08-17T10:23:24.685Z,7.07
2022-08-17T10:26:03.195Z,7.30
2022-08-17T10:28:50.695Z,8.77
2022-08-17T10:31:36.394Z,9.10
2022-08-17T10:34:50.730Z,11.57
2022-08-17T10:37:39.428Z,7.80
2022-08-17T10:40:40.693Z,10.07
2022-08-17T10:43:19.720Z,10.70
2022-08-17T10:46:27.817Z,8.02
2022-08-17T10:48:45.717Z,8.02
2022-08-17T10:51:42.751Z,7.32
2022-08-17T10:54:35.591Z,6.65
2022-08-17T10:57:08.752Z,10.27
2022-08-17T10:59:35.552Z,11.20
2022-08-17T11:02:20.720Z,10.63
2022-08-17T11:05:18.432Z,11.68
2022-08-17T11:08:20.751Z,8.02
2022-08-17T11:11:42.975Z,12.35
2022-08-17T11:14:43.727Z,12.93
2022-08-17T11:17:50.176Z,12.23
2022-08-17T11:20:29.723Z,9.75
2022-08-17T11:23:36.209Z,11.70
2022-08-17T11:26:09.740Z,11.07
2022-08-17T11:28:47.372Z,8.45
2022-08-17T11:31:44.712Z,9.43
2022-08-17T11:34:24.048Z,11.93
2022-08-17T11:37:21.719Z,12.15
2022-08-17T11:40:30.745Z,16.85
2022-08-17T11:44:01.890Z,11.18
2022-08-17T11:46:31.283Z,10.10
2022-08-17T11:49:20.753Z,10.02
2022-08-17T11:51:59.801Z,9.18
2022-08-17T11:54:37.766Z,10.65
2022-08-17T11:57:42.369Z,10.82
2022-08-17T12:00:55.746Z,11.52
2022-08-17T12:03:32.659Z,7.93
2022-08-17T12:06:33.771Z,8.88
2022-08-17T12:09:26.424Z,8.20
2022-08-17T12:12:13.864Z,10.90
2022-08-17T12:15:09.655Z,8.38
2022-08-17T12:17:42.925Z,8.70
2022-08-17T12:20:35.779Z,8.63
2022-08-17T12:23:24.367Z,7.50
2022-08-17T12:26:28.803Z,7.97
2022-08-17T12:29:09.372Z,9.82
2022-08-17T12:31:50.894Z,9.95
2022-08-17T12:34:45.800Z,9.32
2022-08-17T12:37:25.200Z,8.80
2022-08-17T12:40:12.806Z,9.75
2022-08-17T12:42:39.706Z,9.00
2022-08-17T12:45:35.779Z,9.80
2022-08-17T12:48:06.929Z,8.07
2022-08-17T12:50:45.816Z,7.35
2022-08-17T12:53:15.513Z,7.25
2022-08-17T12:55:48.783Z,8.50
2022-08-17T12:58:28.827Z,12.40
2022-08-17T13:01:07.502Z,8.50
2022-08-17T13:03:50.822Z,9.30
2022-08-17T13:06:33.857Z,7.40
2022-08-17T13:09:33.544Z,11.90
2022-08-17T13:12:09.832Z,10.02
2022-08-17T13:14:36.709Z,9.50
2022-08-17T13:17:03.739Z,8.60
2022-08-17T13:19:40.950Z,9.30
2022-08-17T13:22:11.202Z,9.10
2022-08-17T13:24:44.859Z,10.88
2022-08-17T13:27:12.598Z,11.07
2022-08-17T13:29:55.875Z,8.50
2022-08-17T13:32:45.008Z,9.40
2022-08-17T13:35:52.836Z,7.63
2022-08-17T13:38:50.854Z,9.55
2022-08-17T13:41:34.057Z,9.68
2022-08-17T13:44:07.856Z,11.52
2022-08-17T13:46:34.757Z,13.68
2022-08-17T13:49:12.861Z,10.48
2022-08-17T13:51:50.848Z,11.32
2022-08-17T13:54:37.866Z,9.88
2022-08-17T13:57:22.449Z,11.48
2022-08-17T13:59:56.857Z,10.25
2022-08-17T14:02:28.378Z,9.55
2022-08-17T14:05:01.884Z,8.27
2022-08-17T14:07:36.635Z,10.55
2022-08-17T14:10:17.890Z,9.05
2022-08-17T14:12:51.857Z,9.15
2022-08-17T14:15:21.675Z,11.07
2022-08-17T14:17:59.869Z,9.98
2022-08-17T14:20:26.784Z,10.65
2022-08-17T14:23:00.852Z,9.77
2022-08-17T14:25:28.813Z,7.60
2022-08-17T14:28:01.906Z,7.55
2022-08-17T14:30:29.691Z,9.98
2022-08-17T14:33:03.857Z,9.55
2022-08-17T14:35:30.734Z,11.18
2022-08-17T14:38:03.893Z,11.07
2022-08-17T14:40:30.819Z,10.85
2022-08-17T14:43:03.875Z,10.50
2022-08-17T14:45:32.797Z,8.95
2022-08-17T14:48:08.900Z,7.63
2022-08-17T14:50:43.881Z,10.85
2022-08-17T14:53:12.691Z,10.82
2022-08-17T14:55:46.873Z,9.10
2022-08-17T14:58:14.370Z,8.02
2022-08-17T15:00:47.921Z,10.63
2022-08-17T15:03:20.900Z,8.70
2022-08-17T15:05:53.876Z,9.23
2022-08-17T15:08:20.726Z,9.48
2022-08-17T15:10:47.640Z,11.32
2022-08-17T15:13:30.928Z,8.48
2022-08-17T15:16:04.903Z,8.65
2022-08-17T15:18:37.901Z,8.43
2022-08-17T15:21:11.898Z,9.45
2022-08-17T15:23:38.886Z,9.65
2022-08-17T15:26:12.907Z,9.00
2022-08-17T15:28:39.776Z,8.73
2022-08-17T15:31:06.658Z,10.20
2022-08-17T15:33:39.948Z,8.70
2022-08-17T15:36:07.575Z,11.73
2022-08-17T15:38:41.910Z,12.55
2022-08-17T15:41:19.915Z,6.65
2022-08-17T15:43:54.905Z,10.52
2022-08-17T15:46:24.164Z,8.60
2022-08-17T15:49:00.936Z,7.10
2022-08-17T15:51:33.733Z,7.50
2022-08-17T15:54:19.138Z,7.45
2022-08-17T15:56:49.950Z,7.18
2022-08-17T15:59:22.933Z,7.05
2022-08-17T16:03:13.484Z,7.60
2022-08-17T16:04:43.917Z,7.25
2022-08-17T16:07:11.154Z,7.10
2022-08-17T16:09:44.952Z,7.97
2022-08-17T16:12:17.955Z,8.20
2022-08-17T16:14:52.953Z,10.30
2022-08-17T16:17:39.289Z,8.80
2022-08-17T16:20:20.234Z,9.65
2022-08-17T16:22:48.268Z,6.95
2022-08-17T16:25:50.344Z,8.82
2022-08-17T16:28:16.100Z,6.68
2022-08-17T16:30:49.968Z,6.75
2022-08-17T16:33:22.980Z,6.25
2022-08-17T16:35:49.845Z,6.90
2022-08-17T16:38:22.990Z,6.28
2022-08-17T16:40:55.957Z,7.22
2022-08-17T16:43:22.850Z,6.10
2022-08-17T16:45:55.993Z,6.90
2022-08-17T16:48:28.985Z,6.03
2022-08-17T16:51:03.052Z,9.70
2022-08-17T16:53:37.975Z,9.20
2022-08-17T16:56:05.090Z,10.35
2022-08-17T16:58:38.013Z,9.48
2022-08-17T17:01:07.212Z,6.63
2022-08-17T17:03:40.960Z,6.47
2022-08-17T17:06:18.755Z,7.13
2022-08-17T17:09:01.975Z,6.25
2022-08-17T17:11:53.017Z,8.27
2022-08-17T17:14:38.991Z,7.00
2022-08-17T17:17:36.002Z,8.38
2022-08-17T17:20:17.027Z,7.47
2022-08-17T17:23:17.992Z,5.53
2022-08-17T17:25:58.501Z,6.32
2022-08-17T17:28:34.983Z,6.63
2022-08-17T17:31:19.703Z,6.60
2022-08-17T17:34:00.045Z,7.00
2022-08-17T17:36:57.870Z,8.93
2022-08-17T17:39:57.092Z,6.22
2022-08-17T17:42:26.014Z,5.82
2022-08-17T17:45:50.032Z,7.60
2022-08-17T17:48:16.917Z,5.68
2022-08-17T17:51:11.058Z,8.70
2022-08-17T17:54:09.717Z,6.03
2022-08-17T17:57:30.077Z,5.72
2022-08-17T18:00:29.043Z,5.57
2022-08-17T18:03:24.695Z,5.20
2022-08-17T18:06:09.743Z,6.55
2022-08-17T18:09:19.442Z,4.80
2022-08-17T18:12:09.043Z,6.78
2022-08-17T18:15:04.830Z,8.07
2022-08-17T18:17:38.047Z,5.65
2022-08-17T18:20:05.711Z,4.90
2022-08-17T18:22:39.066Z,6.65
2022-08-17T18:25:06.473Z,5.05
2022-08-17T18:27:42.062Z,4.88
2022-08-17T18:30:15.062Z,5.80
2022-08-17T18:32:50.050Z,5.55
2022-08-17T18:35:19.879Z,5.55
2022-08-17T18:38:24.051Z,6.07
2022-08-17T18:41:22.667Z,6.63
2022-08-17T18:44:43.092Z,4.82
2022-08-17T18:47:25.056Z,7.20
2022-08-17T18:50:02.087Z,4.97
2022-08-17T18:52:33.137Z,8.40
2022-08-17T18:55:29.084Z,6.65
2022-08-17T18:57:57.802Z,4.97
2022-08-17T19:00:43.042Z,4.95
2022-08-17T19:03:22.168Z,6.95
2022-08-17T19:05:54.832Z,5.90
2022-08-17T19:08:37.144Z,5.00
2022-08-17T19:11:39.094Z,6.40
2022-08-17T19:14:16.142Z,5.22
2022-08-17T19:16:52.292Z,6.72
2022-08-17T19:19:37.107Z,5.38
2022-08-17T19:22:31.261Z,5.00
2022-08-17T19:25:19.136Z,4.85
2022-08-17T19:28:21.900Z,6.13
2022-08-17T19:31:04.147Z,8.73
2022-08-17T19:33:31.185Z,5.95
2022-08-17T19:36:27.122Z,6.43
2022-08-17T19:39:26.492Z,6.00
2022-08-17T19:42:28.115Z,6.10
2022-08-17T19:45:38.127Z,5.80
2022-08-17T19:48:26.197Z,5.80
2022-08-17T19:50:59.122Z,6.68
2022-08-17T19:54:11.154Z,7.38
2022-08-17T19:56:58.131Z,5.80
2022-08-17T19:59:46.639Z,5.20
2022-08-17T20:02:32.192Z,6.28
2022-08-17T20:05:14.109Z,5.70
2022-08-17T20:08:14.128Z,5.25
2022-08-17T20:10:55.006Z,5.80
2022-08-17T20:13:49.160Z,6.18
2022-08-17T20:16:16.321Z,5.45
2022-08-17T20:19:05.171Z,5.10
2022-08-17T20:21:43.128Z,5.97
2022-08-17T20:24:22.299Z,6.03
2022-08-17T20:27:05.131Z,7.90
2022-08-17T20:29:40.742Z,5.68
2022-08-17T20:32:30.180Z,6.22
2022-08-17T20:35:14.958Z,6.93
2022-08-17T20:37:48.141Z,5.18
2022-08-17T20:40:21.523Z,5.68
2022-08-17T20:42:55.130Z,6.10
2022-08-17T20:45:22.061Z,5.22
2022-08-17T20:48:30.861Z,5.25
2022-08-17T20:50:57.443Z,6.00
2022-08-17T20:53:56.156Z,6.95
2022-08-17T20:56:44.883Z,7.30
2022-08-17T20:59:27.183Z,6.22
2022-08-17T21:02:30.159Z,5.93
2022-08-17T21:04:59.413Z,7.03
2022-08-17T21:07:29.394Z,5.72
2022-08-17T21:10:30.156Z,5.05
2022-08-17T21:13:09.328Z,5.22
2022-08-17T21:16:05.185Z,6.32
2022-08-17T21:18:56.285Z,6.72
2022-08-17T21:21:52.192Z,8.07
2022-08-17T21:24:44.188Z,4.60
2022-08-17T21:27:35.214Z,4.55
2022-08-17T21:30:10.067Z,4.22
2022-08-17T21:32:46.186Z,4.43
2022-08-17T21:35:26.192Z,4.95
2022-08-17T21:38:05.253Z,4.82
2022-08-17T21:40:39.197Z,4.65
2022-08-17T21:43:31.171Z,4.70
2022-08-17T21:46:13.208Z,5.43
2022-08-17T21:48:48.282Z,5.55
2022-08-17T21:51:27.238Z,5.22
2022-08-17T21:54:03.205Z,5.85
2022-08-17T21:56:42.189Z,6.47
2022-08-17T21:59:21.968Z,7.45
2022-08-17T22:02:08.215Z,8.95
2022-08-17T22:04:38.260Z,5.28
2022-08-17T22:07:16.205Z,6.88
2022-08-17T22:09:54.191Z,5.93
2022-08-17T22:12:29.193Z,6.60
2022-08-17T22:15:01.461Z,5.97
2022-08-17T22:17:38.226Z,5.90
2022-08-17T22:20:20.346Z,6.22
2022-08-17T22:22:57.212Z,7.70
2022-08-17T22:25:25.219Z,5.50
2022-08-17T22:28:13.261Z,6.55
2022-08-17T22:31:06.252Z,8.32
2022-08-17T22:33:39.218Z,6.50
2022-08-17T22:36:26.178Z,5.72
2022-08-17T22:39:06.240Z,8.70
2022-08-17T22:41:46.286Z,9.50
2022-08-17T22:44:43.224Z,8.68
2022-08-17T22:47:23.242Z,6.82
2022-08-17T22:50:01.281Z,7.32
2022-08-17T22:52:46.247Z,8.45
2022-08-17T22:55:16.547Z,7.85
2022-08-17T22:57:55.237Z,8.25
2022-08-17T23:00:51.508Z,6.80
2022-08-17T23:03:31.363Z,8.75
2022-08-17T23:06:06.709Z,6.57
2022-08-17T23:08:46.269Z,7.60
2022-08-17T23:11:13.144Z,8.00
2022-08-17T23:13:46.251Z,6.20
2022-08-17T23:16:19.251Z,8.52
2022-08-17T23:18:46.145Z,6.95
2022-08-17T23:21:19.270Z,7.15
2022-08-17T23:23:54.349Z,6.43
2022-08-17T23:26:42.248Z,7.28
2022-08-17T23:29:09.394Z,6.53
2022-08-17T23:31:43.264Z,8.25
2022-08-17T23:34:13.078Z,6.28
2022-08-17T23:36:46.266Z,7.85
2022-08-17T23:39:13.131Z,6.68
2022-08-17T23:41:47.279Z,10.25
2022-08-17T23:44:14.396Z,6.10
2022-08-17T23:46:48.277Z,6.25
2022-08-17T23:49:15.147Z,7.93
2022-08-17T23:51:48.279Z,6.68
2022-08-17T23:54:31.759Z,9.55
2022-08-17T23:57:05.307Z,8.15
2022-08-17T23:59:32.175Z,7.20
